»·PEaware :: SWA3779 KLAS-KPHX

SWA3779 :: KLAS-KPHX

FLIGHT INFORMATION

Flight Status: Arrived
Operator:
Southwest Airlines
More flights by this operator :: More flights under this callsign
Pilot: Merv A. (1555)
Aircraft: BOEING 737-700
(B737)
More flights by this aircraft type
Origin: KLAS McCarran Intl
United States
Destination: KPHX Phoenix Sky Harbor Intl
United States
More flights between these airports :: More routes between these airports
Route: PRFUM4 PRFUM WOTRO BRUSR1
File this flight plan on PilotEdge
Remarks:
Altitude:
(Current/Filed)
29,000ft
Speed:
(Current/Filed)
450kts
Departed: 30-Sep-18 04:54 PM
Arrived: 30-Sep-18 05:42 PM
Distance/Time
Traveled:
222nm/0:48
Distance/Time
To Go:
Arrived

Flight Plot

Page will automatically refresh every two minutes.

Flight plan parsing failed; only flown route is shown


Map Options




Map Legend


Flown Route
Filed Route
Departure Airport
Arrival Airport
Navaid (VOR, NDB)
Fix

Horizontal Profiles

Position Reports

Time Latitude Longitude Heading Altitude Ground
Speed
30-Sep-18 16:29 36.080621 -115.147544 60 2188ft 0kts
30-Sep-18 16:30 36.080621 -115.147544 60 2188ft 0kts
30-Sep-18 16:31 36.080621 -115.147544 60 2188ft 0kts
30-Sep-18 16:32 36.080621 -115.147544 60 2188ft 0kts
30-Sep-18 16:33 36.080621 -115.147544 60 2188ft 0kts
30-Sep-18 16:34 36.080621 -115.147544 60 2188ft 0kts
30-Sep-18 16:35 36.080621 -115.147544 60 2188ft 0kts
30-Sep-18 16:36 36.080621 -115.147544 60 2188ft 0kts
30-Sep-18 16:37 36.080621 -115.147544 60 2188ft 0kts
30-Sep-18 16:38 36.080621 -115.147544 60 2188ft 0kts
30-Sep-18 16:39 36.080621 -115.147544 60 2188ft 0kts
30-Sep-18 16:40 36.080621 -115.147544 60 2188ft 0kts
30-Sep-18 16:41 36.080487 -115.147955 88 2188ft 2kts
30-Sep-18 16:42 36.080670 -115.148295 155 2188ft 0kts
30-Sep-18 16:43 36.080670 -115.148295 155 2188ft 0kts
30-Sep-18 16:44 36.080670 -115.148295 155 2188ft 0kts
30-Sep-18 16:45 36.080670 -115.148295 155 2188ft 0kts
30-Sep-18 16:46 36.080415 -115.148153 155 2188ft 4kts
30-Sep-18 16:47 36.079038 -115.147375 154 2188ft 1kts
30-Sep-18 16:48 36.078351 -115.144649 94 2188ft 12kts
30-Sep-18 16:49 36.078262 -115.140260 90 2188ft 17kts
30-Sep-18 16:50 36.078277 -115.132096 90 2188ft 19kts
30-Sep-18 16:51 36.078282 -115.126738 90 2188ft 18kts
30-Sep-18 16:52 36.077749 -115.121883 129 2188ft 11kts
30-Sep-18 16:53 36.077378 -115.121382 146 2188ft 0kts
30-Sep-18 16:54 36.077322 -115.121342 152 2188ft 2kts
30-Sep-18 16:55 36.076415 -115.122181 268 2188ft 6kts
30-Sep-18 16:56 36.076648 -115.160868 270 2827ft 175kts
30-Sep-18 16:57 36.076599 -115.223175 267 4924ft 203kts
30-Sep-18 16:58 36.035064 -115.273857 197 6786ft 259kts
30-Sep-18 16:59 35.962607 -115.294799 172 7194ft 270kts
30-Sep-18 17:00 35.889055 -115.269769 158 10521ft 283kts
30-Sep-18 17:01 35.845287 -115.174587 111 12273ft 371kts
30-Sep-18 17:02 35.823222 -115.046596 94 14998ft 399kts
30-Sep-18 17:03 35.833724 -114.906578 86 17745ft 420kts
30-Sep-18 17:04 35.844886 -114.760249 87 18874ft 429kts
30-Sep-18 17:05 35.850417 -114.612438 104 20564ft 435kts
30-Sep-18 17:06 35.795269 -114.481864 128 22647ft 436kts
30-Sep-18 17:07 35.727236 -114.355077 128 24449ft 451kts
30-Sep-18 17:08 35.657767 -114.224473 128 26134ft 461kts
30-Sep-18 17:09 35.587148 -114.092417 129 28111ft 460kts
30-Sep-18 17:10 35.516375 -113.960851 129 28965ft 460kts
30-Sep-18 17:11 35.445846 -113.830337 129 29006ft 458kts
30-Sep-18 17:12 35.375202 -113.700139 129 29022ft 459kts
30-Sep-18 17:13 35.305081 -113.570319 129 29030ft 459kts
30-Sep-18 17:14 35.234074 -113.440073 129 29041ft 458kts
30-Sep-18 17:15 35.163208 -113.310652 129 29059ft 459kts
30-Sep-18 17:16 35.093122 -113.182292 129 29084ft 450kts
30-Sep-18 17:17 35.024046 -113.057156 130 29105ft 424kts
30-Sep-18 17:18 34.960363 -112.942534 129 27150ft 420kts
30-Sep-18 17:19 34.893585 -112.822639 129 26054ft 426kts
30-Sep-18 17:20 34.828431 -112.704835 129 25053ft 414kts
30-Sep-18 17:21 34.764364 -112.590365 128 24175ft 406kts
30-Sep-18 17:22 34.697530 -112.478723 136 24149ft 408kts
30-Sep-18 17:23 34.611901 -112.391036 144 22414ft 393kts
30-Sep-18 17:24 34.529321 -112.310876 144 20792ft 373kts
30-Sep-18 17:25 34.450068 -112.237648 156 19263ft 335kts
30-Sep-18 17:26 34.361829 -112.208024 169 17953ft 335kts
30-Sep-18 17:27 34.271237 -112.184761 169 16535ft 318kts
30-Sep-18 17:28 34.187809 -112.163271 169 15332ft 298kts
30-Sep-18 17:29 34.107921 -112.142658 168 14180ft 287kts
30-Sep-18 17:30 34.031549 -112.115665 161 12885ft 287kts
30-Sep-18 17:31 33.956300 -112.084281 161 11947ft 286kts
30-Sep-18 17:32 33.880985 -112.053646 162 10880ft 286kts
30-Sep-18 17:33 33.805468 -112.022995 162 10004ft 289kts
30-Sep-18 17:34 33.729870 -111.992395 163 8615ft 288kts
30-Sep-18 17:35 33.657814 -111.963286 163 7950ft 264kts
30-Sep-18 17:36 33.589719 -111.935787 164 7356ft 251kts
30-Sep-18 17:37 33.528096 -111.902734 150 6716ft 233kts
30-Sep-18 17:38 33.478922 -111.855689 140 5437ft 213kts
30-Sep-18 17:39 33.436218 -111.819725 194 4111ft 171kts
30-Sep-18 17:40 33.424515 -111.867208 270 3208ft 163kts
30-Sep-18 17:41 33.427724 -111.919118 269 2378ft 142kts
30-Sep-18 17:42 33.428594 -111.964778 269 1749ft 135kts
30-Sep-18 17:43 33.428812 -112.008476 268 1143ft 119kts
30-Sep-18 17:44 33.429469 -112.021861 317 1142ft 6kts
30-Sep-18 17:45 33.429567 -112.021968 317 1142ft 0kts
30-Sep-18 17:46 33.429905 -112.021990 38 1142ft 6kts
30-Sep-18 17:47 33.429939 -112.018082 90 1142ft 13kts
30-Sep-18 17:48 33.431332 -112.015779 357 1142ft 7kts
30-Sep-18 17:49 33.432340 -112.015140 63 1142ft 0kts
30-Sep-18 17:50 33.432841 -112.013450 89 1142ft 7kts
30-Sep-18 17:51 33.432840 -112.009749 89 1142ft 8kts
30-Sep-18 17:52 33.432836 -112.005925 89 1142ft 13kts
30-Sep-18 17:53 33.432840 -112.001865 89 1142ft 12kts
30-Sep-18 17:54 33.432842 -111.997264 89 1142ft 13kts
30-Sep-18 17:55 33.433552 -111.995902 310 1142ft 3kts
30-Sep-18 17:56 33.433691 -111.996127 306 1142ft 0kts
30-Sep-18 17:57 33.433691 -111.996127 306 1142ft 0kts

Navigation Log

Ident Type
Flight plan parsing failed, navigation log unavailable